createdAt,value
2022-08-18T00:01:58.842Z,19.90
2022-08-18T00:04:35.488Z,19.90
2022-08-18T00:07:03.288Z,19.90
2022-08-18T00:09:32.686Z,19.90
2022-08-18T00:12:04.112Z,19.90
2022-08-18T00:14:31.085Z,19.90
2022-08-18T00:16:57.911Z,19.90
2022-08-18T00:19:46.964Z,19.90
2022-08-18T00:22:15.878Z,19.90
2022-08-18T00:24:47.530Z,19.60
2022-08-18T00:27:21.636Z,19.40
2022-08-18T00:29:49.393Z,19.30
2022-08-18T00:32:19.350Z,19.30
2022-08-18T00:34:46.046Z,19.40
2022-08-18T00:37:12.728Z,19.40
2022-08-18T00:39:45.976Z,19.40
2022-08-18T00:42:29.072Z,19.40
2022-08-18T00:45:01.862Z,19.40
2022-08-18T00:47:33.123Z,19.30
2022-08-18T00:50:15.756Z,19.30
2022-08-18T00:52:47.750Z,19.30
2022-08-18T00:55:15.287Z,19.20
2022-08-18T00:57:43.109Z,19.20
2022-08-18T01:00:12.911Z,19.20
2022-08-18T01:02:47.695Z,19.30
2022-08-18T01:05:33.806Z,19.30
2022-08-18T01:08:01.035Z,19.30
2022-08-18T01:10:27.769Z,19.10
2022-08-18T01:12:56.800Z,19.10
2022-08-18T01:15:28.874Z,19.10
2022-08-18T01:18:17.640Z,19.10
2022-08-18T01:21:28.608Z,19.10
2022-08-18T01:23:57.185Z,19.00
2022-08-18T01:26:26.664Z,19.00
2022-08-18T01:28:53.988Z,19.00
2022-08-18T01:31:39.198Z,19.00
2022-08-18T01:34:07.698Z,18.60
2022-08-18T01:36:37.452Z,18.30
2022-08-18T01:39:07.099Z,18.30
2022-08-18T01:41:33.934Z,18.30
2022-08-18T01:44:02.071Z,18.40
2022-08-18T01:46:31.674Z,18.40
2022-08-18T01:49:00.593Z,18.40
2022-08-18T01:51:40.180Z,18.50
2022-08-18T01:54:10.234Z,18.30
2022-08-18T01:56:37.025Z,18.30
2022-08-18T01:59:04.744Z,18.40
2022-08-18T02:01:34.823Z,18.40
2022-08-18T02:04:33.150Z,18.40
2022-08-18T02:06:54.311Z,18.40
2022-08-18T02:09:23.732Z,18.40
2022-08-18T02:11:52.984Z,18.50
2022-08-18T02:14:25.039Z,18.40
2022-08-18T02:17:01.334Z,18.50
2022-08-18T02:19:38.207Z,18.50
2022-08-18T02:22:06.319Z,18.40
2022-08-18T02:24:33.003Z,18.10
2022-08-18T02:27:00.077Z,18.20
2022-08-18T02:29:26.935Z,18.20
2022-08-18T02:31:53.662Z,18.20
2022-08-18T02:34:20.419Z,18.20
2022-08-18T02:36:47.138Z,18.20
2022-08-18T02:39:13.798Z,18.20
2022-08-18T02:41:40.482Z,18.20
2022-08-18T02:44:09.029Z,18.10
2022-08-18T02:46:37.088Z,17.80
2022-08-18T02:49:05.461Z,17.70
2022-08-18T02:51:32.119Z,17.80
2022-08-18T02:54:01.727Z,17.90
2022-08-18T02:56:41.639Z,18.00
2022-08-18T02:59:19.754Z,18.00
2022-08-18T03:01:51.364Z,18.00
2022-08-18T03:04:28.108Z,18.00
2022-08-18T03:06:58.311Z,18.10
2022-08-18T03:09:24.980Z,18.20
2022-08-18T03:11:52.756Z,18.20
2022-08-18T03:14:19.534Z,18.20
2022-08-18T03:16:53.883Z,18.10
2022-08-18T03:19:23.875Z,18.10
2022-08-18T03:21:50.821Z,18.10
2022-08-18T03:24:22.320Z,18.00
2022-08-18T03:26:51.110Z,18.00
2022-08-18T03:29:17.901Z,18.00
2022-08-18T03:31:45.378Z,17.90
2022-08-18T03:34:12.935Z,18.00
2022-08-18T03:36:39.764Z,18.10
2022-08-18T03:39:09.301Z,18.10
2022-08-18T03:41:57.208Z,18.10
2022-08-18T03:44:27.969Z,18.10
2022-08-18T03:46:54.750Z,18.20
2022-08-18T03:49:21.465Z,18.20
2022-08-18T03:51:48.933Z,18.30
2022-08-18T03:54:17.950Z,18.20
2022-08-18T03:56:47.499Z,18.20
2022-08-18T03:59:17.948Z,18.30
2022-08-18T04:01:45.745Z,18.30
2022-08-18T04:04:15.695Z,18.40
2022-08-18T04:06:50.766Z,18.40
2022-08-18T04:09:19.034Z,18.40
2022-08-18T04:11:46.576Z,18.50
2022-08-18T04:14:15.286Z,18.50
2022-08-18T04:16:42.549Z,18.60
2022-08-18T04:19:13.305Z,18.60
2022-08-18T04:21:42.145Z,18.70
2022-08-18T04:24:10.733Z,18.70
2022-08-18T04:26:44.992Z,18.50
2022-08-18T04:29:13.604Z,18.50
2022-08-18T04:31:40.837Z,18.40
2022-08-18T04:34:07.529Z,18.50
2022-08-18T04:36:36.060Z,18.50
2022-08-18T04:39:05.394Z,18.50
2022-08-18T04:41:32.083Z,18.50
2022-08-18T04:44:01.299Z,18.30
2022-08-18T04:46:29.299Z,18.30
2022-08-18T04:49:01.242Z,18.30
2022-08-18T04:52:36.296Z,18.40
2022-08-18T04:54:16.473Z,18.40
2022-08-18T04:56:43.418Z,18.50
2022-08-18T04:59:12.535Z,18.50
2022-08-18T05:01:45.715Z,18.50
2022-08-18T05:04:14.342Z,18.50
2022-08-18T05:06:43.248Z,18.50
2022-08-18T05:09:11.410Z,18.50
2022-08-18T05:11:39.078Z,18.60
2022-08-18T05:14:08.483Z,18.60
2022-08-18T05:16:48.221Z,18.70
2022-08-18T05:19:21.976Z,18.70
2022-08-18T05:21:51.568Z,18.60
2022-08-18T05:24:20.296Z,18.70
2022-08-18T05:26:51.203Z,18.60
2022-08-18T05:29:19.869Z,18.60
2022-08-18T05:31:48.228Z,18.70
2022-08-18T05:34:16.192Z,18.60
2022-08-18T05:36:49.059Z,18.60
2022-08-18T05:39:18.941Z,18.60
2022-08-18T05:41:48.959Z,18.60
2022-08-18T05:44:21.931Z,18.50
2022-08-18T05:46:55.415Z,18.30
2022-08-18T05:49:24.293Z,18.30
2022-08-18T05:52:05.028Z,18.30
2022-08-18T05:55:00.103Z,18.50
2022-08-18T05:57:30.681Z,18.40
2022-08-18T05:59:58.090Z,18.50
2022-08-18T06:02:42.155Z,18.50
2022-08-18T06:05:31.929Z,18.50
2022-08-18T06:08:13.741Z,18.50
2022-08-18T06:10:46.282Z,18.50
2022-08-18T06:13:13.539Z,18.50
2022-08-18T06:15:58.628Z,18.50
2022-08-18T06:18:50.184Z,18.50
2022-08-18T06:21:39.374Z,18.50
2022-08-18T06:24:32.107Z,18.60
2022-08-18T06:27:09.045Z,18.70
2022-08-18T06:29:47.850Z,18.80
2022-08-18T06:32:34.205Z,18.80
2022-08-18T06:35:18.198Z,18.90
2022-08-18T06:38:22.599Z,18.90
2022-08-18T06:40:49.998Z,19.00
2022-08-18T06:43:17.398Z,19.10
2022-08-18T06:45:51.230Z,19.10
2022-08-18T06:48:27.160Z,19.10
2022-08-18T06:50:58.600Z,19.10
2022-08-18T06:53:56.484Z,19.20
2022-08-18T06:56:43.368Z,19.20
2022-08-18T06:59:29.111Z,19.20
2022-08-18T07:02:16.938Z,19.20
2022-08-18T07:04:58.143Z,19.20
2022-08-18T07:07:40.215Z,19.20
2022-08-18T07:10:17.583Z,19.20
2022-08-18T07:12:44.229Z,19.20
2022-08-18T07:15:13.306Z,19.20
2022-08-18T07:17:53.092Z,19.20
2022-08-18T07:20:23.622Z,19.20
2022-08-18T07:23:07.919Z,19.30
2022-08-18T07:25:42.675Z,19.40
2022-08-18T07:28:33.237Z,19.40
2022-08-18T07:31:35.046Z,19.50
2022-08-18T07:34:08.347Z,19.40
2022-08-18T07:36:47.563Z,19.50
2022-08-18T07:39:21.433Z,19.50
2022-08-18T07:42:11.127Z,19.90
2022-08-18T07:45:04.232Z,19.90
2022-08-18T07:47:54.882Z,19.90
2022-08-18T07:50:55.192Z,19.70
2022-08-18T07:53:37.358Z,19.60
2022-08-18T07:56:22.619Z,19.50
2022-08-18T07:58:58.467Z,19.70
2022-08-18T08:01:34.358Z,19.70
2022-08-18T08:04:26.184Z,19.70
2022-08-18T08:07:26.220Z,19.70
2022-08-18T08:10:04.661Z,19.80
2022-08-18T08:13:08.452Z,19.70
2022-08-18T08:15:42.351Z,19.70
2022-08-18T08:18:28.774Z,19.90
2022-08-18T08:21:00.368Z,19.90
2022-08-18T08:23:27.396Z,19.90
2022-08-18T08:26:15.054Z,19.90
2022-08-18T08:28:57.049Z,20.00
2022-08-18T08:32:00.823Z,20.10
2022-08-18T08:34:54.402Z,20.10
2022-08-18T08:37:46.830Z,20.00
2022-08-18T08:40:21.775Z,20.10
2022-08-18T08:42:57.647Z,20.10
2022-08-18T08:45:32.184Z,20.10
2022-08-18T08:48:09.480Z,20.10
2022-08-18T08:51:03.453Z,20.20
2022-08-18T08:53:35.160Z,20.20
2022-08-18T08:56:07.985Z,20.20
2022-08-18T08:58:40.290Z,20.20
2022-08-18T09:01:27.553Z,20.20
2022-08-18T09:04:04.433Z,20.10
2022-08-18T09:07:08.335Z,20.20
2022-08-18T09:10:01.942Z,20.30
2022-08-18T09:12:46.360Z,20.40
2022-08-18T09:15:51.800Z,20.40
2022-08-18T09:18:30.804Z,20.40
2022-08-18T09:21:15.913Z,20.50
2022-08-18T09:23:46.898Z,20.50
2022-08-18T09:26:45.074Z,20.60
2022-08-18T09:29:45.783Z,20.70
2022-08-18T09:32:18.529Z,20.70
2022-08-18T09:34:56.404Z,20.70
2022-08-18T09:37:34.074Z,20.70
2022-08-18T09:41:01.119Z,20.80
2022-08-18T09:43:36.761Z,20.80
2022-08-18T09:46:05.930Z,21.00
2022-08-18T09:48:34.286Z,21.10
2022-08-18T09:51:17.698Z,21.20
2022-08-18T09:53:52.479Z,21.20
2022-08-18T09:56:54.358Z,21.30
2022-08-18T09:59:34.769Z,21.20
2022-08-18T10:02:20.162Z,21.30
2022-08-18T10:05:19.815Z,21.40
2022-08-18T10:07:53.181Z,21.40
2022-08-18T10:14:05.248Z,21.60
2022-08-18T10:20:26.712Z,21.70
2022-08-18T10:22:56.338Z,21.80
2022-08-18T10:25:42.995Z,21.70
2022-08-18T10:28:31.273Z,21.80
2022-08-18T10:31:06.406Z,21.90
2022-08-18T10:36:59.911Z,22.20
2022-08-18T10:39:39.771Z,22.30
2022-08-18T10:42:17.833Z,22.40
2022-08-18T10:44:47.594Z,22.40
2022-08-18T10:47:33.207Z,22.50
2022-08-18T10:50:05.107Z,22.50
2022-08-18T10:53:33.165Z,22.40
2022-08-18T10:56:01.206Z,22.40
2022-08-18T10:58:40.521Z,22.50
2022-08-18T11:01:14.409Z,22.70
2022-08-18T11:03:51.164Z,22.80
2022-08-18T11:06:23.427Z,22.80
2022-08-18T11:08:55.213Z,22.80
2022-08-18T11:11:34.726Z,22.80
2022-08-18T11:14:26.468Z,22.80
2022-08-18T11:17:15.984Z,22.90
2022-08-18T11:19:45.051Z,22.90
2022-08-18T11:22:31.556Z,23.00
2022-08-18T11:25:00.749Z,23.10
2022-08-18T11:27:35.579Z,23.20
2022-08-18T11:30:05.552Z,23.30
2022-08-18T11:32:39.386Z,23.40
2022-08-18T11:35:23.947Z,23.40
2022-08-18T11:38:12.413Z,23.40
2022-08-18T11:43:41.822Z,23.70
2022-08-18T11:46:29.615Z,23.90
2022-08-18T11:48:59.986Z,24.00
2022-08-18T11:51:33.248Z,24.10
2022-08-18T11:54:24.737Z,24.00
2022-08-18T11:56:51.898Z,24.00
2022-08-18T11:59:52.480Z,24.10
2022-08-18T12:02:20.843Z,24.20
2022-08-18T12:04:53.017Z,24.30
2022-08-18T12:07:57.198Z,24.40
2022-08-18T12:10:28.063Z,24.50
2022-08-18T12:12:57.493Z,24.50
2022-08-18T12:15:43.829Z,24.50
2022-08-18T12:18:26.484Z,24.40
2022-08-18T12:20:58.222Z,24.40
2022-08-18T12:23:25.206Z,24.30
2022-08-18T12:25:52.107Z,24.30
2022-08-18T12:28:22.407Z,24.40
2022-08-18T12:30:56.636Z,24.60
2022-08-18T12:33:25.143Z,24.80
2022-08-18T12:35:52.582Z,24.90
2022-08-18T12:38:19.323Z,24.80
2022-08-18T12:40:46.067Z,24.90
2022-08-18T12:43:13.006Z,25.10
2022-08-18T12:45:40.362Z,25.10
2022-08-18T12:48:08.788Z,25.10
2022-08-18T12:50:49.603Z,25.40
2022-08-18T12:56:21.523Z,25.70
2022-08-18T12:58:49.715Z,25.70
2022-08-18T13:01:20.205Z,25.80
2022-08-18T13:04:03.660Z,25.80
2022-08-18T13:06:41.273Z,25.70
2022-08-18T13:09:35.306Z,25.40
2022-08-18T13:12:14.787Z,25.30
2022-08-18T13:14:43.487Z,25.40
2022-08-18T13:17:15.257Z,25.30
2022-08-18T13:19:57.270Z,25.30
2022-08-18T13:22:32.783Z,25.20
2022-08-18T13:25:06.926Z,25.20
2022-08-18T13:27:36.104Z,25.20
2022-08-18T13:30:29.590Z,25.40
2022-08-18T13:33:00.688Z,25.40
2022-08-18T13:35:38.008Z,25.50
2022-08-18T13:38:17.132Z,25.60
2022-08-18T13:40:48.506Z,25.60
2022-08-18T13:43:17.889Z,25.60
2022-08-18T13:45:46.981Z,25.60
2022-08-18T13:48:20.050Z,25.70
2022-08-18T13:50:52.743Z,25.80
2022-08-18T13:53:21.152Z,25.90
2022-08-18T13:55:48.506Z,25.90
2022-08-18T13:58:20.529Z,25.90
2022-08-18T14:00:52.186Z,25.80
2022-08-18T14:03:42.716Z,25.70
2022-08-18T14:06:13.037Z,25.80
2022-08-18T14:08:40.396Z,25.80
2022-08-18T14:11:07.446Z,25.70
2022-08-18T14:13:38.089Z,25.60
2022-08-18T14:16:18.731Z,25.60
2022-08-18T14:19:17.624Z,25.60
2022-08-18T14:22:06.983Z,25.80
2022-08-18T14:24:57.914Z,25.90
2022-08-18T14:27:35.026Z,25.70
2022-08-18T14:30:12.146Z,25.90
2022-08-18T14:32:48.722Z,25.90
2022-08-18T14:36:03.731Z,25.90
2022-08-18T14:38:05.035Z,25.90
2022-08-18T14:40:33.297Z,25.90
2022-08-18T14:43:01.855Z,25.90
2022-08-18T14:45:34.418Z,25.90
2022-08-18T14:48:07.289Z,25.80
2022-08-18T14:50:38.814Z,25.90
2022-08-18T14:53:06.417Z,26.00
2022-08-18T14:55:34.214Z,25.90
2022-08-18T14:58:01.399Z,25.80
2022-08-18T15:00:30.141Z,25.80
2022-08-18T15:02:59.488Z,25.90
2022-08-18T15:05:27.133Z,25.80
2022-08-18T15:07:54.028Z,25.80
2022-08-18T15:10:23.733Z,25.70
2022-08-18T15:12:55.337Z,25.70
2022-08-18T15:15:22.558Z,25.80
2022-08-18T15:17:52.642Z,25.90
2022-08-18T15:20:29.706Z,25.90
2022-08-18T15:23:24.683Z,26.00
2022-08-18T15:25:51.977Z,25.90
2022-08-18T15:28:21.499Z,25.80
2022-08-18T15:31:16.609Z,25.80
2022-08-18T15:33:38.858Z,25.80
2022-08-18T15:36:05.703Z,25.80
2022-08-18T15:38:36.811Z,25.80
2022-08-18T15:41:06.354Z,25.80
2022-08-18T15:43:37.021Z,25.70
2022-08-18T15:46:14.027Z,25.60
2022-08-18T15:48:43.675Z,25.60
2022-08-18T15:51:12.037Z,25.60
2022-08-18T15:53:45.009Z,25.50
2022-08-18T15:56:31.912Z,25.50
2022-08-18T15:59:04.153Z,25.50
2022-08-18T16:01:32.204Z,25.50
2022-08-18T16:04:00.419Z,25.50
2022-08-18T16:06:32.282Z,25.60
2022-08-18T16:09:01.014Z,25.50
2022-08-18T16:11:28.966Z,25.50
2022-08-18T16:13:58.651Z,25.40
2022-08-18T16:16:29.736Z,25.40
2022-08-18T16:19:06.078Z,25.60
2022-08-18T16:21:33.554Z,25.60
2022-08-18T16:24:00.180Z,25.60
2022-08-18T16:26:26.845Z,25.50
2022-08-18T16:28:53.589Z,25.60
2022-08-18T16:31:26.021Z,25.60
2022-08-18T16:33:53.765Z,25.60
2022-08-18T16:36:22.121Z,25.70
2022-08-18T16:38:48.762Z,25.60
2022-08-18T16:41:20.770Z,25.60
2022-08-18T16:43:47.828Z,25.60
2022-08-18T16:46:21.528Z,25.50
2022-08-18T16:48:49.445Z,25.50
2022-08-18T16:51:19.189Z,25.50
2022-08-18T16:53:47.319Z,25.50
2022-08-18T16:56:16.904Z,25.50
2022-08-18T16:59:02.061Z,25.50
2022-08-18T17:01:49.033Z,25.60
2022-08-18T17:04:24.034Z,25.50
2022-08-18T17:06:51.044Z,25.60
2022-08-18T17:09:19.433Z,25.60
2022-08-18T17:11:51.567Z,25.60
2022-08-18T17:14:20.642Z,25.50
2022-08-18T17:16:49.364Z,25.60
2022-08-18T17:19:16.044Z,25.60
2022-08-18T17:21:43.009Z,25.50
2022-08-18T17:24:10.580Z,25.50
2022-08-18T17:26:59.511Z,25.50
2022-08-18T17:29:46.000Z,25.50
2022-08-18T17:32:21.507Z,25.40
2022-08-18T17:34:53.954Z,25.40
2022-08-18T17:37:23.953Z,25.30
2022-08-18T17:40:15.383Z,25.40
2022-08-18T17:42:42.052Z,25.40
2022-08-18T17:45:13.654Z,25.30
2022-08-18T17:47:54.901Z,25.30
2022-08-18T17:50:45.826Z,25.30
2022-08-18T17:53:13.548Z,25.30
2022-08-18T17:55:47.145Z,25.20
2022-08-18T17:58:31.062Z,25.20
2022-08-18T18:00:57.762Z,25.20
2022-08-18T18:03:24.434Z,25.10
2022-08-18T18:05:57.839Z,25.10
2022-08-18T18:08:53.970Z,25.10
2022-08-18T18:11:31.214Z,25.10
2022-08-18T18:14:18.849Z,25.10
2022-08-18T18:17:00.270Z,24.90
2022-08-18T18:19:30.737Z,24.90
2022-08-18T18:22:24.925Z,24.90
2022-08-18T18:25:07.502Z,24.90
2022-08-18T18:27:39.817Z,24.80
2022-08-18T18:30:27.686Z,24.80
2022-08-18T18:33:02.966Z,24.80
2022-08-18T18:35:54.925Z,24.70
2022-08-18T18:38:35.073Z,24.70
2022-08-18T18:41:06.706Z,24.70
2022-08-18T18:43:33.312Z,24.70
2022-08-18T18:46:22.815Z,24.60
2022-08-18T18:49:11.001Z,24.60
2022-08-18T18:51:56.557Z,24.50
2022-08-18T18:54:42.550Z,24.30
2022-08-18T18:57:37.869Z,24.30
2022-08-18T19:00:23.079Z,23.90
2022-08-18T19:03:31.442Z,23.80
2022-08-18T19:06:19.992Z,23.80
2022-08-18T19:08:59.470Z,23.70
2022-08-18T19:11:46.010Z,23.70
2022-08-18T19:14:26.364Z,23.60
2022-08-18T19:17:02.347Z,23.60
2022-08-18T19:19:39.346Z,23.50
2022-08-18T19:22:20.814Z,23.50
2022-08-18T19:25:04.058Z,23.50
2022-08-18T19:27:39.976Z,23.40
2022-08-18T19:30:12.446Z,23.40
2022-08-18T19:32:46.489Z,23.30
2022-08-18T19:35:19.850Z,23.20
2022-08-18T19:38:04.516Z,23.00
2022-08-18T19:40:49.262Z,22.90
2022-08-18T19:43:42.758Z,22.70
2022-08-18T19:46:51.885Z,22.70
2022-08-18T19:49:21.829Z,22.60
2022-08-18T19:51:52.301Z,22.60
2022-08-18T19:54:18.901Z,22.70
2022-08-18T19:57:03.462Z,22.60
2022-08-18T20:00:25.259Z,22.60
2022-08-18T20:03:21.187Z,22.50
2022-08-18T20:06:13.268Z,22.30
2022-08-18T20:09:03.117Z,22.20
2022-08-18T20:11:52.402Z,22.10
2022-08-18T20:14:20.323Z,22.10
2022-08-18T20:17:12.736Z,22.10
2022-08-18T20:19:47.661Z,22.10
2022-08-18T20:22:24.568Z,22.10
2022-08-18T20:25:32.731Z,21.90
2022-08-18T20:27:59.419Z,22.00
2022-08-18T20:30:33.871Z,22.00
2022-08-18T20:33:07.419Z,21.90
2022-08-18T20:35:59.258Z,21.70
2022-08-18T20:38:47.011Z,21.70
2022-08-18T20:41:29.974Z,21.70
2022-08-18T20:44:36.491Z,21.60
2022-08-18T20:47:36.513Z,21.60
2022-08-18T20:50:34.110Z,21.50
2022-08-18T20:53:39.702Z,21.60
2022-08-18T20:56:32.584Z,21.60
2022-08-18T20:59:21.137Z,21.40
2022-08-18T21:02:08.107Z,21.40
2022-08-18T21:04:45.449Z,21.40
2022-08-18T21:07:36.207Z,21.30
2022-08-18T21:10:24.679Z,21.30
2022-08-18T21:12:57.769Z,21.30
2022-08-18T21:15:36.905Z,21.20
2022-08-18T21:18:18.771Z,21.20
2022-08-18T21:20:51.134Z,21.20
2022-08-18T21:23:25.836Z,21.10
2022-08-18T21:25:57.819Z,21.00
2022-08-18T21:28:28.166Z,20.90
2022-08-18T21:31:29.089Z,20.90
2022-08-18T21:33:51.001Z,20.90
2022-08-18T21:36:20.101Z,20.90
2022-08-18T21:39:03.414Z,20.90
2022-08-18T21:41:39.104Z,20.80
2022-08-18T21:44:21.203Z,20.80
2022-08-18T21:46:48.811Z,20.80
2022-08-18T21:49:28.194Z,20.70
2022-08-18T21:51:54.912Z,20.60
2022-08-18T21:54:25.791Z,20.60
2022-08-18T21:57:22.365Z,20.60
2022-08-18T22:00:18.339Z,20.50
2022-08-18T22:02:47.034Z,20.50
2022-08-18T22:05:26.785Z,20.50
2022-08-18T22:07:53.597Z,20.50
2022-08-18T22:10:51.056Z,20.50
2022-08-18T22:13:40.387Z,20.40
2022-08-18T22:16:24.531Z,20.30
2022-08-18T22:18:51.658Z,20.20
2022-08-18T22:21:41.033Z,20.20
2022-08-18T22:24:20.216Z,20.30
2022-08-18T22:27:26.280Z,20.30
2022-08-18T22:30:03.625Z,20.40
2022-08-18T22:32:32.917Z,20.40
2022-08-18T22:34:59.838Z,20.40
2022-08-18T22:37:32.430Z,20.40
2022-08-18T22:40:10.100Z,20.40
2022-08-18T22:42:37.667Z,20.40
2022-08-18T22:45:13.262Z,20.50
2022-08-18T22:47:43.135Z,20.50
2022-08-18T22:50:12.247Z,20.60
2022-08-18T22:52:48.190Z,20.50
2022-08-18T22:55:20.250Z,20.50
2022-08-18T22:57:50.963Z,20.50
2022-08-18T23:00:22.988Z,20.50
2022-08-18T23:02:50.795Z,20.50
2022-08-18T23:05:18.082Z,20.50
2022-08-18T23:07:45.962Z,20.60
2022-08-18T23:10:14.066Z,20.50
2022-08-18T23:12:42.985Z,20.60
2022-08-18T23:15:13.156Z,20.50
2022-08-18T23:17:43.435Z,20.50
2022-08-18T23:20:17.554Z,20.50
2022-08-18T23:22:45.444Z,20.40
2022-08-18T23:25:13.192Z,20.40
2022-08-18T23:27:40.873Z,20.40
2022-08-18T23:30:08.311Z,20.40
2022-08-18T23:32:34.974Z,20.40
2022-08-18T23:35:02.275Z,20.30
2022-08-18T23:37:28.940Z,20.30
2022-08-18T23:39:55.872Z,20.20
2022-08-18T23:42:23.130Z,20.10
2022-08-18T23:44:50.142Z,20.10
2022-08-18T23:47:19.404Z,20.20
2022-08-18T23:49:46.481Z,20.20
2022-08-18T23:52:13.130Z,20.20
2022-08-18T23:54:39.789Z,20.20
2022-08-18T23:57:06.466Z,20.20
2022-08-18T23:59:33.219Z,20.20
